Time;durP1;ratioP1;P1;durP2;ratioP2;P2;SDS_P1;SDS_P2;PMS_P1;PMS_P2;Temp;Humidity;BMP_temperature;BMP_pressure;BME280_temperature;BME280_humidity;BME280_pressure;Samples;Min_cycle;Max_cycle;Signal;HPM_P1;HPM_P2
2022/01/08 00:00:29;;;;;;;12.00;1.42;;;6.90;99.90;;;;;;5060619;28;20096;-90
2022/01/08 00:02:55;;;;;;;11.63;1.80;;;6.30;99.90;;;;;;5059855;28;20467;-90
2022/01/08 00:05:22;;;;;;;13.93;1.73;;;6.60;99.90;;;;;;5059300;28;20048;-90
2022/01/08 00:07:48;;;;;;;11.90;1.83;;;4.50;99.90;;;;;;5059522;28;20040;-90
2022/01/08 00:10:15;;;;;;;7.28;1.48;;;5.60;99.90;;;;;;5059510;28;20377;-90
2022/01/08 00:12:40;;;;;;;6.72;1.92;;;4.50;99.90;;;;;;5059184;28;20043;-90
2022/01/08 00:15:07;;;;;;;4.07;1.48;;;5.10;99.90;;;;;;5076090;28;20044;-90
2022/01/08 00:17:34;;;;;;;10.30;1.40;;;4.90;99.90;;;;;;5042990;28;20546;-89
2022/01/08 00:20:01;;;;;;;9.32;1.55;;;7.30;99.90;;;;;;5076289;28;20145;-91
2022/01/08 00:22:26;;;;;;;3.83;1.42;;;4.40;99.90;;;;;;5059632;28;20048;-91
2022/01/08 00:24:52;;;;;;;8.68;1.13;;;5.10;99.90;;;;;;5059170;28;20062;-90
2022/01/08 00:27:23;;;;;;;5.00;1.33;;;5.30;99.90;;;;;;5059046;28;20101;-89
2022/01/08 00:29:49;;;;;;;2.38;0.90;;;4.80;99.90;;;;;;5058851;28;20139;-89
2022/01/08 00:32:16;;;;;;;2.60;1.00;;;3.20;99.90;;;;;;5058825;28;20047;-89
2022/01/08 00:34:42;;;;;;;5.22;1.17;;;4.90;99.90;;;;;;5058714;28;20125;-88
2022/01/08 00:37:08;;;;;;;9.05;1.10;;;5.80;99.90;;;;;;5059013;28;20193;-89
2022/01/08 00:39:34;;;;;;;13.32;1.55;;;6.10;99.90;;;;;;5058650;28;20492;-88
2022/01/08 00:42:00;;;;;;;9.68;1.40;;;6.20;99.90;;;;;;5075380;28;20148;-88
2022/01/08 00:44:25;;;;;;;7.03;1.67;;;6.20;99.90;;;;;;5058690;28;20048;-89
2022/01/08 00:46:51;;;;;;;12.88;2.30;;;4.20;99.90;;;;;;5058583;28;20101;-88
2022/01/08 00:49:17;;;;;;;9.60;2.28;;;6.40;99.90;;;;;;5058685;28;20048;-88
2022/01/08 00:51:42;;;;;;;10.50;1.92;;;4.10;99.90;;;;;;5058694;28;20051;-89
2022/01/08 00:54:08;;;;;;;3.78;1.20;;;6.60;99.90;;;;;;5075199;28;20051;-89
2022/01/08 00:56:34;;;;;;;12.13;1.52;;;5.70;99.90;;;;;;5074979;28;20611;-88
2022/01/08 00:59:00;;;;;;;15.55;2.90;;;4.00;99.90;;;;;;5058201;28;20438;-88
2022/01/08 01:01:26;;;;;;;18.85;3.08;;;5.40;99.90;;;;;;5074804;28;20415;-89
2022/01/08 01:03:51;;;;;;;5.60;1.40;;;7.30;99.90;;;;;;5058702;28;20097;-89
2022/01/08 01:06:17;;;;;;;7.72;1.55;;;6.50;99.90;;;;;;5075168;28;20073;-88
2022/01/08 01:08:43;;;;;;;15.43;1.65;;;6.60;99.90;;;;;;5058658;28;20047;-89
2022/01/08 01:11:09;;;;;;;14.18;1.70;;;6.40;99.90;;;;;;5058521;28;20055;-88
2022/01/08 01:13:34;;;;;;;9.55;1.40;;;5.80;99.90;;;;;;5058571;28;20127;-88
2022/01/08 01:16:02;;;;;;;3.85;1.42;;;5.80;99.90;;;;;;5058427;28;20048;-89
2022/01/08 01:18:27;;;;;;;8.13;1.73;;;5.00;99.90;;;;;;5057919;28;20043;-89
2022/01/08 01:20:53;;;;;;;11.07;1.35;;;6.40;99.90;;;;;;5058492;28;20044;-89
2022/01/08 01:23:27;;;;;;;6.07;1.40;;;5.00;99.90;;;;;;5058058;28;20067;-88
2022/01/08 01:25:57;;;;;;;8.55;1.73;;;4.80;99.90;;;;;;5058034;28;20040;-89
2022/01/08 01:41:08;;;;;;;8.68;1.40;;;5.00;99.90;;;;;;5074426;28;20089;-89
2022/01/08 01:47:16;;;;;;;6.70;1.40;;;5.10;99.90;;;;;;5074641;28;20496;-89
2022/01/08 01:49:44;;;;;;;6.28;1.38;;;5.10;99.90;;;;;;5058274;28;20044;-89
2022/01/08 01:52:14;;;;;;;15.77;1.90;;;5.30;99.90;;;;;;5057969;28;20052;-88
2022/01/08 01:54:40;;;;;;;11.48;1.90;;;6.70;99.90;;;;;;5057934;28;20548;-88
2022/01/08 01:57:07;;;;;;;12.88;2.10;;;6.50;99.90;;;;;;5057863;28;20044;-89
2022/01/08 01:59:34;;;;;;;19.13;1.90;;;6.10;99.90;;;;;;5058009;28;20051;-89
2022/01/08 02:02:00;;;;;;;14.40;2.10;;;7.00;99.90;;;;;;5057719;28;20759;-89
2022/01/08 02:04:26;;;;;;;13.57;1.90;;;6.70;99.90;;;;;;5057950;28;20044;-89
2022/01/08 02:06:53;;;;;;;14.48;1.67;;;6.30;99.90;;;;;;5057945;28;20055;-88
2022/01/08 02:09:19;;;;;;;14.32;1.70;;;4.10;99.90;;;;;;5057681;28;20040;-89
2022/01/08 02:11:59;;;;;;;7.68;1.50;;;5.30;99.90;;;;;;5074453;28;20097;-89
2022/01/08 02:14:28;;;;;;;12.45;1.70;;;4.60;99.90;;;;;;5059952;28;20040;-89
2022/01/08 02:16:54;;;;;;;5.57;1.58;;;6.00;99.90;;;;;;5061481;28;20040;-88
2022/01/08 02:19:21;;;;;;;5.30;1.45;;;5.30;99.90;;;;;;5061741;28;20444;-89
2022/01/08 02:21:54;;;;;;;7.72;1.67;;;6.20;99.90;;;;;;5061667;28;20131;-89
2022/01/08 02:24:20;;;;;;;9.82;2.17;;;4.10;99.90;;;;;;5061658;28;20105;-88
2022/01/08 02:26:46;;;;;;;9.45;1.55;;;4.30;99.90;;;;;;5061567;28;20039;-88
2022/01/08 02:29:14;;;;;;;17.65;1.88;;;5.80;99.90;;;;;;5078047;28;20771;-88
2022/01/08 02:31:40;;;;;;;13.15;1.42;;;7.00;99.90;;;;;;5077779;28;20090;-89
2022/01/08 02:34:07;;;;;;;6.78;1.65;;;6.60;99.90;;;;;;5061091;28;20058;-88
2022/01/08 02:36:34;;;;;;;13.15;2.03;;;6.70;99.90;;;;;;5061236;28;20058;-88
2022/01/08 02:39:00;;;;;;;7.30;1.70;;;4.40;99.90;;;;;;5060825;28;20044;-88
2022/01/08 02:41:27;;;;;;;3.47;1.15;;;5.60;99.90;;;;;;5060796;28;20044;-89
2022/01/08 02:43:53;;;;;;;8.77;1.40;;;5.20;99.90;;;;;;5060161;28;20044;-88
2022/01/08 02:46:21;;;;;;;4.95;1.33;;;3.20;99.90;;;;;;5060598;28;20123;-88
2022/01/08 02:48:46;;;;;;;13.13;2.20;;;4.60;99.90;;;;;;5077143;28;20044;-88
2022/01/08 02:51:13;;;;;;;14.35;1.70;;;3.70;99.90;;;;;;5060849;28;20130;-89
2022/01/08 02:53:39;;;;;;;12.73;1.42;;;3.40;99.90;;;;;;5060556;28;20500;-89
2022/01/08 02:56:05;;;;;;;12.73;2.35;;;5.50;99.90;;;;;;5060721;28;20097;-88
2022/01/08 02:58:30;;;;;;;10.55;1.90;;;3.50;99.90;;;;;;5060409;28;20070;-90
2022/01/08 03:00:56;;;;;;;5.40;1.50;;;5.60;99.90;;;;;;5077452;28;20071;-89
2022/01/08 03:03:22;;;;;;;6.93;1.25;;;5.00;99.90;;;;;;5060926;28;20055;-88
2022/01/08 03:05:48;;;;;;;5.05;1.20;;;4.40;99.90;;;;;;5060461;28;20043;-89
2022/01/08 03:08:14;;;;;;;4.20;1.27;;;6.60;99.90;;;;;;5060340;28;20047;-88
2022/01/08 03:10:40;;;;;;;3.88;1.20;;;;;;;;;;5060476;28;20051;-88
2022/01/08 03:13:07;;;;;;;5.43;1.42;;;4.80;99.90;;;;;;5060222;28;20131;-88
2022/01/08 03:15:35;;;;;;;3.25;1.17;;;6.70;99.90;;;;;;5060150;28;20050;-89
2022/01/08 03:18:03;;;;;;;6.57;1.27;;;6.70;99.90;;;;;;5060487;28;20040;-89
2022/01/08 03:20:30;;;;;;;8.68;1.40;;;4.30;99.90;;;;;;5060182;28;20048;-89
2022/01/08 03:23:02;;;;;;;12.40;1.75;;;4.60;99.90;;;;;;5060335;28;20051;-88
2022/01/08 03:25:29;;;;;;;5.30;1.50;;;5.80;99.90;;;;;;5060082;28;20593;-88
2022/01/08 03:27:55;;;;;;;9.65;1.73;;;4.20;99.90;;;;;;5060342;28;20036;-87
2022/01/08 03:30:21;;;;;;;12.65;1.92;;;4.10;99.90;;;;;;5059621;28;20564;-89
2022/01/08 03:32:47;;;;;;;7.95;2.00;;;6.50;99.90;;;;;;5076546;28;20126;-89
2022/01/08 03:35:13;;;;;;;10.93;2.03;;;5.50;99.90;;;;;;5060266;28;20148;-88
2022/01/08 03:37:38;;;;;;;15.32;1.80;;;6.60;99.90;;;;;;5059939;28;20193;-89
2022/01/08 03:40:06;;;;;;;12.25;1.45;;;7.20;99.90;;;;;;5060253;28;20436;-89
2022/01/08 03:42:32;;;;;;;8.02;2.00;;;4.30;99.90;;;;;;5059933;28;20423;-90
2022/01/08 03:44:58;;;;;;;6.82;1.40;;;5.50;99.90;;;;;;5060148;28;20043;-89
2022/01/08 03:49:50;;;;;;;14.10;2.30;;;6.30;99.90;;;;;;5076622;28;20102;-89
2022/01/08 03:52:16;;;;;;;15.85;1.85;;;7.00;99.90;;;;;;5075710;28;20551;-89
2022/01/08 03:54:42;;;;;;;8.88;2.00;;;7.10;99.90;;;;;;5059881;28;20077;-89
2022/01/08 03:57:08;;;;;;;7.90;1.60;;;5.20;99.90;;;;;;5059435;28;20055;-89
2022/01/08 03:59:34;;;;;;;9.10;1.70;;;4.40;99.90;;;;;;5059460;28;20400;-88
2022/01/08 04:02:00;;;;;;;12.52;1.70;;;7.60;99.90;;;;;;5059341;28;20089;-88
2022/01/08 04:04:25;;;;;;;9.23;2.00;;;5.70;99.90;;;;;;5075839;28;20040;-89
2022/01/08 04:06:51;;;;;;;8.68;1.98;;;5.20;99.90;;;;;;5059676;28;20048;-89
2022/01/08 04:09:17;;;;;;;8.35;2.03;;;4.30;99.90;;;;;;5059430;28;20048;-88
2022/01/08 04:11:44;;;;;;;5.72;1.63;;;4.70;99.90;;;;;;5059398;28;20090;-88
2022/01/08 04:14:12;;;;;;;14.63;1.80;;;5.00;99.90;;;;;;5059431;28;20087;-89
2022/01/08 04:16:42;;;;;;;8.35;1.55;;;6.40;99.90;;;;;;5059065;28;20040;-89
2022/01/08 04:19:07;;;;;;;7.97;1.70;;;4.90;99.90;;;;;;5058962;28;20074;-88
2022/01/08 04:24:04;;;;;;;7.68;1.77;;;5.80;99.90;;;;;;5076108;28;20127;-88
2022/01/08 04:26:30;;;;;;;14.38;1.80;;;3.30;99.90;;;;;;5076015;28;20123;-88
2022/01/08 04:28:55;;;;;;;14.23;2.55;;;2.80;99.90;;;;;;5059244;28;20408;-89
2022/01/08 04:31:23;;;;;;;9.98;1.80;;;5.30;99.90;;;;;;5059069;28;20043;-89
2022/01/08 04:33:49;;;;;;;19.33;2.10;;;5.00;99.90;;;;;;5059002;28;20127;-89
2022/01/08 04:36:15;;;;;;;8.15;1.60;;;5.70;99.90;;;;;;5075004;28;20044;-88
2022/01/08 04:38:41;;;;;;;15.18;2.00;;;4.30;99.90;;;;;;5075945;28;20189;-89
2022/01/08 04:41:07;;;;;;;16.02;2.30;;;4.80;99.90;;;;;;5059967;28;20044;-89
2022/01/08 04:46:24;;;;;;;15.23;1.85;;;6.10;99.90;;;;;;5075466;28;20142;-89
2022/01/08 04:48:50;;;;;;;9.95;1.42;;;5.20;99.90;;;;;;5058763;28;20496;-90
2022/01/08 04:51:15;;;;;;;14.35;2.28;;;6.00;99.90;;;;;;5075641;28;20127;-89
2022/01/08 04:53:41;;;;;;;10.73;1.77;;;5.60;99.90;;;;;;5058982;28;20083;-89
2022/01/08 04:56:07;;;;;;;8.70;1.67;;;4.20;99.90;;;;;;5058407;28;20040;-88
2022/01/08 04:58:33;;;;;;;8.90;1.65;;;4.10;99.90;;;;;;5075610;28;20047;-88
2022/01/08 05:00:58;;;;;;;10.50;1.95;;;5.80;99.90;;;;;;5074872;28;20455;-88
2022/01/08 05:03:24;;;;;;;9.98;1.63;;;4.90;99.90;;;;;;5076168;28;20442;-88
2022/01/08 05:05:50;;;;;;;11.93;2.30;;;3.40;99.90;;;;;;5059782;28;20042;-89
2022/01/08 05:08:16;;;;;;;10.20;1.80;;;5.90;99.90;;;;;;5075534;28;20086;-89
2022/01/08 05:10:42;;;;;;;16.90;2.15;;;3.60;99.90;;;;;;5058575;28;20052;-89
2022/01/08 05:13:08;;;;;;;20.50;2.22;;;4.90;99.90;;;;;;5059029;28;20047;-89
2022/01/08 05:15:34;;;;;;;8.90;1.73;;;3.60;99.90;;;;;;5075520;28;20036;-89
2022/01/08 05:18:01;;;;;;;6.30;1.60;;;5.20;99.90;;;;;;5058577;28;20040;-89
2022/01/08 05:20:32;;;;;;;14.82;2.17;;;3.20;99.90;;;;;;5058422;28;20044;-88
2022/01/08 05:23:01;;;;;;;16.63;2.03;;;4.20;99.90;;;;;;5058559;28;20412;-89
2022/01/08 05:25:28;;;;;;;6.13;1.60;;;1.90;99.90;;;;;;5058354;28;20131;-89
2022/01/08 05:27:54;;;;;;;18.00;2.03;;;5.50;99.90;;;;;;5058341;28;20046;-89
2022/01/08 05:30:22;;;;;;;10.27;1.60;;;5.60;99.90;;;;;;5057922;28;20415;-90
2022/01/08 05:32:48;;;;;;;27.52;2.22;;;5.70;99.90;;;;;;5075025;28;20454;-89
2022/01/08 05:35:14;;;;;;;15.00;2.00;;;4.60;99.90;;;;;;5058520;28;20039;-89
2022/01/08 05:37:41;;;;;;;11.23;2.13;;;4.10;99.90;;;;;;5058792;28;20425;-88
2022/01/08 05:40:07;;;;;;;13.20;1.75;;;3.30;99.90;;;;;;5058348;28;20070;-88
2022/01/08 05:42:33;;;;;;;6.72;1.63;;;3.30;99.90;;;;;;5058929;28;20093;-88
2022/01/08 05:44:59;;;;;;;6.57;1.23;;;6.10;99.90;;;;;;5058302;28;20040;-88
2022/01/08 05:47:29;;;;;;;7.45;1.98;;;4.70;99.90;;;;;;5058915;28;20449;-89
2022/01/08 05:49:55;;;;;;;11.88;1.65;;;4.10;99.90;;;;;;5062295;28;20134;-88
2022/01/08 05:52:21;;;;;;;11.55;1.60;;;6.30;99.90;;;;;;5062711;28;20076;-88
2022/01/08 05:54:47;;;;;;;8.10;1.85;;;4.50;99.90;;;;;;5062552;28;20036;-89
2022/01/08 05:57:12;;;;;;;10.27;1.77;;;6.40;99.90;;;;;;5078742;28;20040;-88
2022/01/08 05:59:38;;;;;;;9.70;1.65;;;5.80;99.90;;;;;;5078611;28;20039;-89
2022/01/08 06:02:05;;;;;;;9.35;1.50;;;3.00;99.90;;;;;;5062765;28;20036;-88
2022/01/08 06:04:31;;;;;;;10.40;1.55;;;4.30;99.90;;;;;;5061894;28;20050;-88
2022/01/08 06:06:57;;;;;;;6.90;1.73;;;5.00;99.90;;;;;;5061525;28;20044;-88
2022/01/08 06:09:23;;;;;;;8.85;1.73;;;5.50;99.90;;;;;;5061871;28;20052;-88
2022/01/08 06:11:48;;;;;;;20.90;1.77;;;3.20;99.90;;;;;;5065186;28;20094;-88
2022/01/08 06:14:14;;;;;;;8.20;1.98;;;4.70;99.90;;;;;;5078648;28;20044;-88
2022/01/08 06:16:40;;;;;;;7.20;1.92;;;4.90;99.90;;;;;;5079981;28;20332;-89
2022/01/08 06:19:09;;;;;;;10.02;1.75;;;6.20;99.90;;;;;;5078007;28;20036;-88
2022/01/08 06:21:36;;;;;;;13.30;1.50;;;6.30;99.90;;;;;;5077841;28;20492;-88
2022/01/08 06:24:02;;;;;;;6.88;1.65;;;3.50;99.90;;;;;;5061438;28;20484;-88
2022/01/08 06:26:28;;;;;;;6.25;1.67;;;4.00;99.90;;;;;;5061174;28;20055;-88
2022/01/08 06:28:59;;;;;;;6.50;2.00;;;3.70;99.90;;;;;;5061556;28;20048;-89
2022/01/08 06:31:26;;;;;;;7.03;1.67;;;4.20;99.90;;;;;;5078015;28;20060;-89
2022/01/08 06:33:53;;;;;;;9.02;2.20;;;5.20;99.90;;;;;;5060996;28;20052;-89
2022/01/08 06:36:20;;;;;;;10.75;1.58;;;3.40;99.90;;;;;;5061023;28;20054;-89
2022/01/08 06:38:46;;;;;;;8.45;2.35;;;5.80;99.90;;;;;;5061687;28;20051;-89
2022/01/08 06:41:13;;;;;;;7.80;1.50;;;5.60;99.90;;;;;;5061240;28;20051;-89
2022/01/08 06:43:38;;;;;;;6.43;1.38;;;4.50;99.90;;;;;;5060665;28;20133;-90
2022/01/08 06:46:04;;;;;;;2.67;1.00;;;5.00;99.90;;;;;;5061117;28;20044;-89
2022/01/08 06:48:30;;;;;;;7.80;1.50;;;5.00;99.90;;;;;;5077772;28;20040;-89
2022/01/08 06:50:56;;;;;;;11.40;1.63;;;2.80;99.90;;;;;;5061621;28;20040;-90
2022/01/08 06:53:22;;;;;;;9.63;1.92;;;3.30;99.90;;;;;;5061093;28;20109;-89
2022/01/08 06:55:48;;;;;;;11.38;1.83;;;5.00;99.90;;;;;;5061523;28;20470;-89
2022/01/08 06:58:14;;;;;;;11.80;1.80;;;6.00;99.90;;;;;;5061468;28;20127;-89
2022/01/08 07:00:40;;;;;;;9.40;1.38;;;;;;;;;;5060632;28;20051;-89
2022/01/08 07:03:10;;;;;;;4.03;1.30;;;4.40;99.90;;;;;;5060928;28;20491;-89
2022/01/08 07:05:37;;;;;;;5.95;1.50;;;6.00;99.90;;;;;;5060858;28;20047;-89
2022/01/08 07:08:03;;;;;;;8.75;1.60;;;5.60;99.90;;;;;;5060669;28;20045;-89
2022/01/08 07:10:29;;;;;;;12.05;1.50;;;4.40;99.90;;;;;;5060984;28;20124;-89
2022/01/08 07:12:55;;;;;;;10.88;1.60;;;5.90;99.90;;;;;;5061133;28;20443;-89
2022/01/08 07:15:20;;;;;;;7.95;1.30;;;6.40;99.90;;;;;;5060567;28;20143;-89
2022/01/08 07:17:46;;;;;;;7.78;1.70;;;6.30;99.90;;;;;;5060822;28;20051;-90
2022/01/08 07:20:12;;;;;;;3.63;1.33;;;4.10;99.90;;;;;;5062304;28;20055;-88
2022/01/08 07:22:38;;;;;;;6.97;1.45;;;3.90;99.90;;;;;;5077724;28;20048;-88
2022/01/08 07:25:05;;;;;;;4.38;1.38;;;3.40;99.90;;;;;;5076844;28;20047;-88
2022/01/08 07:27:34;;;;;;;3.97;1.60;;;4.30;99.90;;;;;;5060153;28;20044;-88
2022/01/08 07:30:08;;;;;;;10.52;1.83;;;6.50;99.90;;;;;;5058481;28;20064;-88
2022/01/08 07:32:40;;;;;;;8.20;1.40;;;3.90;99.90;;;;;;5040535;28;20078;-88
2022/01/08 07:35:07;;;;;;;11.20;1.90;;;4.10;99.90;;;;;;5039785;28;20112;-88
2022/01/08 07:37:32;;;;;;;10.90;1.48;;;4.60;99.90;;;;;;5056696;28;20098;-88
2022/01/08 07:39:58;;;;;;;9.45;1.70;;;4.10;99.90;;;;;;5056436;28;20040;-88
2022/01/08 07:42:24;;;;;;;6.63;1.70;;;3.80;99.90;;;;;;5039862;28;20445;-88
2022/01/08 07:44:49;;;;;;;4.90;1.38;;;4.20;99.90;;;;;;5039925;28;20032;-89
2022/01/08 07:47:15;;;;;;;9.75;1.80;;;3.60;99.90;;;;;;5056431;28;20510;-88
2022/01/08 07:49:41;;;;;;;7.10;1.20;;;3.30;99.90;;;;;;5056157;28;20065;-89
2022/01/08 07:52:07;;;;;;;9.45;1.63;;;3.90;99.90;;;;;;5056897;28;20131;-88
2022/01/08 07:54:35;;;;;;;9.27;2.40;;;4.30;99.90;;;;;;5055511;28;20106;-88
2022/01/08 07:57:01;;;;;;;5.72;1.20;;;2.20;99.90;;;;;;5056143;28;20439;-88
2022/01/08 07:59:26;;;;;;;5.15;1.70;;;3.10;99.90;;;;;;5055929;28;20536;-88
2022/01/08 08:01:52;;;;;;;5.78;1.55;;;3.30;99.90;;;;;;5039386;28;20044;-88
2022/01/08 08:04:18;;;;;;;4.85;1.75;;;3.50;99.90;;;;;;5039795;28;20409;-88
2022/01/08 08:06:44;;;;;;;7.55;2.03;;;4.50;99.90;;;;;;5039705;28;20396;-88
2022/01/08 08:09:10;;;;;;;18.48;2.60;;;2.60;99.90;;;;;;5039244;28;20106;-88
2022/01/08 08:11:36;;;;;;;7.85;2.28;;;2.80;99.90;;;;;;5054640;28;20076;-88
2022/01/08 08:14:01;;;;;;;10.73;2.10;;;4.50;99.90;;;;;;5039244;28;20079;-88
2022/01/08 08:16:27;;;;;;;7.50;2.40;;;5.00;99.90;;;;;;5039173;28;20043;-88
2022/01/08 08:18:53;;;;;;;14.25;3.25;;;5.30;99.90;;;;;;5038912;28;20040;-89
2022/01/08 08:21:18;;;;;;;11.65;3.30;;;5.80;99.90;;;;;;5055955;28;20044;-88
2022/01/08 08:23:44;;;;;;;14.93;3.42;;;2.70;99.90;;;;;;5039631;28;20045;-88
2022/01/08 08:26:10;;;;;;;12.45;3.03;;;4.80;99.90;;;;;;5055495;28;20036;-88
2022/01/08 08:28:36;;;;;;;8.77;3.03;;;3.80;99.90;;;;;;5038663;28;20051;-87
2022/01/08 08:31:01;;;;;;;11.25;2.58;;;6.80;99.90;;;;;;5062479;28;20144;-88
2022/01/08 08:33:27;;;;;;;8.85;3.25;;;4.80;99.90;;;;;;5075521;28;20043;-87
2022/01/08 08:35:53;;;;;;;8.52;2.92;;;4.10;99.90;;;;;;5058482;28;20079;-87
2022/01/08 08:38:18;;;;;;;11.65;3.42;;;5.20;99.90;;;;;;5058729;28;20032;-88
2022/01/08 08:40:44;;;;;;;15.27;3.15;;;5.80;99.90;;;;;;5075802;28;20051;-89
2022/01/08 08:43:10;;;;;;;11.30;3.08;;;4.20;99.90;;;;;;5058764;28;20118;-88
2022/01/08 08:45:36;;;;;;;15.20;3.13;;;4.50;99.90;;;;;;5058454;28;20046;-88
2022/01/08 08:48:01;;;;;;;18.48;3.50;;;5.30;99.90;;;;;;5059141;28;20139;-88
2022/01/08 08:50:27;;;;;;;14.38;3.20;;;6.70;99.90;;;;;;5075576;28;20047;-88
2022/01/08 08:52:54;;;;;;;15.15;3.17;;;6.00;99.90;;;;;;5058353;28;20047;-88
2022/01/08 08:55:20;;;;;;;21.05;2.72;;;5.70;99.90;;;;;;5058321;28;20048;-88
2022/01/08 08:57:46;;;;;;;8.43;2.13;;;6.20;99.90;;;;;;5074931;28;20555;-88
2022/01/08 09:00:12;;;;;;;7.45;2.08;;;6.80;99.90;;;;;;5058378;28;20076;-88
2022/01/08 09:02:38;;;;;;;11.05;2.22;;;4.90;99.90;;;;;;5075420;28;20046;-88
2022/01/08 09:05:05;;;;;;;12.20;2.72;;;4.00;99.90;;;;;;5058665;28;20036;-89
2022/01/08 09:07:32;;;;;;;7.70;2.25;;;4.40;99.90;;;;;;5074981;28;20076;-89
2022/01/08 09:09:57;;;;;;;14.23;2.72;;;4.60;99.90;;;;;;5058990;28;20079;-88
2022/01/08 09:12:23;;;;;;;9.07;2.72;;;4.20;99.90;;;;;;5058670;28;20072;-87
2022/01/08 09:14:49;;;;;;;14.02;2.90;;;6.20;99.90;;;;;;5058516;28;20040;-88
2022/01/08 09:17:15;;;;;;;6.07;2.05;;;4.30;99.90;;;;;;5058621;28;20044;-89
2022/01/08 09:19:42;;;;;;;11.48;2.40;;;6.70;99.90;;;;;;5058103;28;20036;-89
2022/01/08 09:22:08;;;;;;;6.25;2.08;;;6.00;99.90;;;;;;5059238;28;20047;-88
2022/01/08 09:24:36;;;;;;;13.45;2.42;;;6.20;99.90;;;;;;5081615;28;20044;-88
2022/01/08 09:27:03;;;;;;;10.90;1.90;;;7.00;99.90;;;;;;5064829;28;20515;-89
2022/01/08 09:29:29;;;;;;;12.90;2.63;;;4.60;99.90;;;;;;5065107;28;20036;-88
2022/01/08 09:31:55;;;;;;;7.63;2.00;;;4.50;99.90;;;;;;5064500;28;20056;-89
2022/01/08 09:34:21;;;;;;;11.32;2.38;;;5.90;99.90;;;;;;5064216;28;20050;-89
2022/01/08 09:36:47;;;;;;;9.80;2.95;;;6.20;99.90;;;;;;5064543;28;20040;-89
2022/01/08 09:39:13;;;;;;;13.98;2.25;;;5.10;99.90;;;;;;5081123;28;20105;-89
2022/01/08 09:41:39;;;;;;;13.88;3.58;;;6.90;99.90;;;;;;5064946;28;20051;-89
2022/01/08 09:44:05;;;;;;;6.95;2.38;;;5.40;99.90;;;;;;5081604;28;20048;-91
2022/01/08 09:46:31;;;;;;;17.60;2.83;;;5.30;99.90;;;;;;5064890;28;20051;-86
2022/01/08 09:48:57;;;;;;;18.42;3.45;;;5.10;99.90;;;;;;5080759;28;20157;-87
2022/01/08 09:51:26;;;;;;;13.23;3.17;;;6.70;99.90;;;;;;5064505;28;20131;-88
2022/01/08 09:53:52;;;;;;;19.40;3.15;;;5.10;99.90;;;;;;5063822;28;20496;-89
2022/01/08 09:56:18;;;;;;;7.60;2.00;;;5.40;99.90;;;;;;5080954;28;20597;-88
2022/01/08 09:58:44;;;;;;;5.13;1.80;;;4.50;99.90;;;;;;5064831;28;20131;-91
2022/01/08 10:01:25;;;;;;;7.55;2.40;;;4.50;99.90;;;;;;5065063;28;20385;-91
2022/01/08 10:03:52;;;;;;;9.55;2.53;;;4.70;99.90;;;;;;5065780;28;20039;-90
2022/01/08 10:06:26;;;;;;;4.00;2.35;;;5.10;99.90;;;;;;5065417;28;20050;-91
2022/01/08 10:08:53;;;;;;;13.05;2.60;;;5.20;99.90;;;;;;5065161;28;20051;-91
2022/01/08 10:11:20;;;;;;;7.50;2.90;;;4.90;99.90;;;;;;5065510;28;20054;-91
2022/01/08 10:13:48;;;;;;;7.40;2.25;;;4.30;99.90;;;;;;5065256;28;20055;-90
2022/01/08 10:19:15;;;;;;;7.20;2.40;;;6.80;99.90;;;;;;5081965;28;20448;-91
2022/01/08 10:21:44;;;;;;;9.30;2.65;;;7.80;99.90;;;;;;5065409;28;20050;-91
2022/01/08 10:24:10;;;;;;;6.43;2.53;;;4.50;99.90;;;;;;5064693;28;20036;-90
2022/01/08 10:26:38;;;;;;;5.20;2.15;;;7.00;99.90;;;;;;5081457;28;20054;-90
2022/01/08 10:29:09;;;;;;;11.02;2.78;;;6.50;99.90;;;;;;5064494;28;20040;-90
2022/01/08 10:31:41;;;;;;;5.13;2.20;;;7.00;99.90;;;;;;5064535;28;20127;-90
2022/01/08 10:34:09;;;;;;;11.93;2.65;;;5.70;99.90;;;;;;5062228;28;20044;-90
2022/01/08 10:36:37;;;;;;;6.90;2.53;;;7.50;99.90;;;;;;5061292;28;20051;-89
2022/01/08 10:39:09;;;;;;;4.80;2.17;;;5.60;99.90;;;;;;5077825;28;20130;-89
2022/01/08 10:41:42;;;;;;;5.53;2.03;;;5.50;99.90;;;;;;5060918;28;20276;-90
2022/01/08 10:44:08;;;;;;;6.88;2.42;;;6.90;99.90;;;;;;5061091;28;20051;-90
2022/01/08 10:46:36;;;;;;;4.05;2.20;;;5.60;99.90;;;;;;5061068;28;20044;-90
2022/01/08 10:49:03;;;;;;;7.07;2.88;;;7.90;99.90;;;;;;5078041;28;20142;-90
2022/01/08 10:51:35;;;;;;;9.38;3.40;;;5.90;99.90;;;;;;5060747;28;20090;-89
2022/01/08 10:54:11;;;;;;;4.57;2.28;;;7.90;99.90;;;;;;5060872;28;20036;-89
2022/01/08 10:56:39;;;;;;;;;;;5.00;99.90;;;;;;5061113;28;20132;-88
2022/01/08 10:59:09;;;;;;;5.40;2.78;;;5.30;99.90;;;;;;5060991;28;20340;-89
2022/01/08 11:01:44;;;;;;;9.05;2.70;;;7.30;99.90;;;;;;5077850;28;20130;-88
2022/01/08 11:04:15;;;;;;;8.80;3.13;;;5.10;99.90;;;;;;5061082;28;20113;-88
2022/01/08 11:06:52;;;;;;;12.82;2.95;;;7.70;99.90;;;;;;5061149;28;20101;-88
2022/01/08 11:09:18;;;;;;;6.05;2.50;;;5.80;99.90;;;;;;5061046;28;20036;-91
2022/01/08 11:11:44;;;;;;;8.68;2.75;;;5.40;99.90;;;;;;5061483;28;20114;-89
2022/01/08 11:14:21;;;;;;;9.05;3.85;;;7.30;99.90;;;;;;5077920;28;20044;-88
2022/01/08 11:16:50;;;;;;;8.77;3.15;;;4.50;99.90;;;;;;5077428;28;20048;-86
2022/01/08 11:19:17;;;;;;;9.25;3.35;;;6.10;99.90;;;;;;5077528;28;20044;-87
2022/01/08 11:21:45;;;;;;;12.38;3.28;;;6.30;99.90;;;;;;5077657;28;20118;-86
2022/01/08 11:24:12;;;;;;;8.90;3.58;;;7.60;99.90;;;;;;5075221;28;20112;-87
2022/01/08 11:26:38;;;;;;;6.47;3.28;;;7.80;99.90;;;;;;5057496;28;20084;-87
2022/01/08 11:29:04;;;;;;;9.60;4.00;;;7.70;99.90;;;;;;5057111;28;20044;-87
2022/01/08 11:31:32;;;;;;;9.57;4.13;;;6.90;99.90;;;;;;5055912;28;20064;-87
2022/01/08 11:34:06;;;;;;;12.60;3.67;;;5.90;99.90;;;;;;5073931;28;20041;-87
2022/01/08 11:36:33;;;;;;;10.55;3.90;;;7.20;99.90;;;;;;5057026;28;20048;-87
2022/01/08 11:38:59;;;;;;;18.13;5.35;;;7.30;99.90;;;;;;5063069;28;20197;-87
2022/01/08 11:41:28;;;;;;;9.38;4.55;;;7.10;99.90;;;;;;5076794;28;20131;-87
2022/01/08 11:43:55;;;;;;;9.02;4.13;;;5.30;99.90;;;;;;5076732;28;20081;-87
2022/01/08 11:46:23;;;;;;;11.65;4.80;;;7.30;99.90;;;;;;5076781;28;20127;-87
2022/01/08 11:48:51;;;;;;;11.43;4.78;;;6.50;99.90;;;;;;5060081;28;20079;-87
2022/01/08 11:51:19;;;;;;;12.13;5.22;;;4.60;99.90;;;;;;5092589;28;20053;-88
2022/01/08 11:53:48;;;;;;;9.15;5.82;;;5.50;99.90;;;;;;5076612;28;20509;-87
2022/01/08 11:56:32;;;;;;;9.38;5.07;;;7.00;99.90;;;;;;5076201;28;20177;-87
2022/01/08 11:59:05;;;;;;;8.02;4.70;;;5.70;99.90;;;;;;5059992;28;20039;-87
2022/01/08 12:01:33;;;;;;;18.33;5.95;;;7.70;99.90;;;;;;5089888;28;20059;-87
2022/01/08 12:03:59;;;;;;;17.00;6.20;;;7.80;99.90;;;;;;5094899;28;20123;-87
2022/01/08 12:06:28;;;;;;;9.43;5.47;;;8.00;99.90;;;;;;5076419;28;20136;-86
2022/01/08 12:09:15;;;;;;;11.02;5.55;;;7.80;99.90;;;;;;5059885;28;20119;-86
2022/01/08 12:11:42;;;;;;;13.65;6.18;;;5.80;99.90;;;;;;5060227;28;20070;-87
2022/01/08 12:14:11;;;;;;;18.77;5.20;;;7.20;99.90;;;;;;5076316;28;20130;-87
2022/01/08 12:16:38;;;;;;;8.05;5.10;;;6.40;99.90;;;;;;5076574;28;20113;-86
2022/01/08 12:19:07;;;;;;;5.60;3.78;;;7.50;99.90;;;;;;5076486;28;20047;-87
2022/01/08 12:21:36;;;;;;;4.93;3.45;;;7.30;99.90;;;;;;5059508;28;20048;-87
2022/01/08 12:24:26;;;;;;;4.65;3.10;;;4.80;99.90;;;;;;5059737;28;20044;-87
2022/01/08 12:26:53;;;;;;;5.43;2.97;;;5.00;99.90;;;;;;5076090;28;20051;-87
2022/01/08 12:29:37;;;;;;;3.47;2.10;;;4.70;99.90;;;;;;5066647;28;20056;-87
2022/01/08 12:32:26;;;;;;;2.63;1.85;;;5.00;99.90;;;;;;5075298;28;20056;-87
2022/01/08 12:35:00;;;;;;;3.47;1.65;;;4.70;99.90;;;;;;5076058;28;20043;-85
2022/01/08 12:37:36;;;;;;;1.90;1.70;;;7.40;99.90;;;;;;5059552;28;20058;-87
2022/01/08 12:40:03;;;;;;;4.18;1.75;;;5.60;99.90;;;;;;5075836;28;20126;-87
2022/01/08 12:42:29;;;;;;;2.85;1.48;;;5.20;99.90;;;;;;5075756;28;20040;-86
2022/01/08 12:45:00;;;;;;;1.90;1.27;;;7.20;99.90;;;;;;5067894;28;20592;-87
2022/01/08 12:47:40;;;;;;;5.03;1.58;;;4.90;99.90;;;;;;5059232;28;20400;-87
2022/01/08 12:50:29;;;;;;;3.58;1.65;;;4.60;99.90;;;;;;5075773;28;20047;-87
2022/01/08 12:53:05;;;;;;;5.75;1.98;;;4.50;99.90;;;;;;5038943;28;20044;-86
2022/01/08 12:55:32;;;;;;;2.75;1.55;;;4.50;99.90;;;;;;5055529;28;20055;-86
2022/01/08 12:57:58;;;;;;;7.10;2.15;;;4.50;99.90;;;;;;5040025;28;20404;-87
2022/01/08 13:00:25;;;;;;;5.28;1.90;;;4.90;99.90;;;;;;5057725;28;20043;-86
2022/01/08 13:02:51;;;;;;;4.18;2.25;;;5.00;99.90;;;;;;5075269;28;20123;-87
2022/01/08 13:05:17;;;;;;;5.53;2.65;;;5.30;99.90;;;;;;5075146;28;20471;-86
2022/01/08 13:07:50;;;;;;;5.43;2.85;;;7.10;99.90;;;;;;5058983;28;20142;-86
2022/01/08 13:10:16;;;;;;;4.57;3.30;;;6.00;99.90;;;;;;5087940;28;20395;-86
2022/01/08 13:12:44;;;;;;;4.97;3.25;;;7.20;99.90;;;;;;5069569;28;20105;-88
2022/01/08 13:15:11;;;;;;;6.80;3.55;;;4.90;99.90;;;;;;5091986;28;20553;-89
2022/01/08 13:17:36;;;;;;;4.25;3.53;;;5.20;99.90;;;;;;5075338;28;20040;-88
2022/01/08 13:20:05;;;;;;;9.60;4.13;;;5.10;99.90;;;;;;5075188;28;20067;-88